Página principal
METAR-TAF:

METAR-TAF

Aeroportos :

Aeroporto de Gibraltar

Gibraltar, Gibraltar

latitude: 36-09N, longitude: 005-21W, altura: 5 m

Observação actual do tempo

O boletim foi feito há 1 hora e 4 minutos, às 04:50 UTC
Vento 10 kt de es-nordeste
Temperatura 16°C
Humidade 94%
Pressão 1013 hPa
Visibilidade: 9000 m

METAR: LXGB 150450Z AUTO 07010KT 9000 // NCD 16/15 Q1013

Hora: 06:54 (05:54 UTC)

Previsão

O boletim foi feito há 23 minutos, às 05:31 UTC
Previsão válida de 15 às 06 UTC a 15 às 15 UTC
Vento 9 kt de este
Visibilidade 10 km ou mais
Poucas nuvensa uma altura de 1300 ft
Temporariamente
de 15 às 06 UTC a 15 às 11 UTC
Nuvens dispersasa uma altura de 1300 ft
Probabilidade 30% :
Temporariamente
de 15 às 11 UTC a 15 às 15 UTC
Nuvens dispersasa uma altura de 1400 ft, Cumulus congestus.
aguaceiros fracos de chuva

TAF: LXGB 150531Z 1506/1515 08009KT 9999 FEW013 TEMPO 1506/1511 SCT013 PROB30 TEMPO 1511/1515 -SHRA SCT014TCU

Observações e previsões do tempo de mais de 4000 aeroportos (mensagens METAR e TAF).

As estações disponíveis são os pontos amarelos e vermelhos sobre o mapa.

Mova o rato sobre o mapa para ver o nome da estação.

Depois clique no ponto para visualizar as observações e previsões meteorológicas.

Para alterar o mapa : clique nos botões verdes com uma cruz preta para aumentar o zoom; no botão verde com uma pitada de zoom; ou nas setas verdes para mapas adjacentes.


METAR-TAF: